Time;durP1;ratioP1;P1;durP2;ratioP2;P2;SDS_P1;SDS_P2;PMS_P1;PMS_P2;Temp;Humidity;BMP_temperature;BMP_pressure;BME280_temperature;BME280_humidity;BME280_pressure;Samples;Min_cycle;Max_cycle;Signal;HPM_P1;HPM_P2
2023/10/16 00:01:31;;;;;;;8.90;4.33;;;7.80;99.90;;;8.15;69.83;101331.41;5039520;28;20480;-83
2023/10/16 00:04:00;;;;;;;9.63;4.47;;;7.80;99.90;;;8.15;69.87;101334.91;4973612;28;20049;-83
2023/10/16 00:06:28;;;;;;;7.70;4.50;;;7.80;99.90;;;8.13;69.85;101334.25;5038844;28;20120;-83
2023/10/16 00:09:03;;;;;;;9.93;4.43;;;7.80;99.90;;;8.13;70.12;101336.91;5023056;28;20080;-83
2023/10/16 00:11:30;;;;;;;10.32;4.68;;;7.80;99.90;;;8.16;70.08;101339.22;5036379;28;20493;-82
2023/10/16 00:13:57;;;;;;;10.02;5.28;;;7.80;99.90;;;8.15;69.86;101329.59;5007857;28;20075;-83
2023/10/16 00:16:28;;;;;;;9.50;4.97;;;7.80;99.90;;;8.14;69.51;101330.56;5022938;28;20076;-83
2023/10/16 00:18:59;;;;;;;9.80;4.82;;;7.80;99.90;;;8.15;70.16;101331.41;5041175;28;20096;-83
2023/10/16 00:21:30;;;;;;;9.25;5.13;;;7.80;99.90;;;8.15;70.02;101328.75;5023745;28;20041;-83
2023/10/16 00:23:57;;;;;;;11.25;5.00;;;7.80;99.90;;;8.12;70.25;101327.28;5040763;28;20076;-82
2023/10/16 00:26:25;;;;;;;9.38;5.50;;;7.70;99.90;;;8.11;70.00;101330.94;5037393;28;20042;-83
2023/10/16 00:29:16;;;;;;;10.70;5.82;;;7.70;99.90;;;8.14;70.04;101327.91;5043226;28;20041;-83
2023/10/16 00:31:45;;;;;;;9.00;5.60;;;7.70;99.90;;;8.13;69.94;101323.63;5044004;28;20120;-83
2023/10/16 00:34:19;;;;;;;11.00;6.20;;;7.70;99.90;;;8.12;69.92;101321.16;5026371;28;20038;-83
2023/10/16 00:36:47;;;;;;;10.20;6.18;;;7.70;99.90;;;8.15;70.16;101318.13;5027908;28;20496;-83
2023/10/16 00:39:16;;;;;;;10.93;6.05;;;7.70;99.90;;;8.18;70.08;101317.78;5019567;28;20125;-83
2023/10/16 00:41:46;;;;;;;11.48;5.80;;;7.80;99.90;;;8.15;70.33;101313.66;5005269;28;20042;-82
2023/10/16 00:44:17;;;;;;;12.48;5.95;;;7.70;99.90;;;8.15;70.02;101313.66;5027739;28;20041;-83
2023/10/16 00:46:48;;;;;;;9.85;6.05;;;7.70;99.90;;;8.14;69.98;101314.63;5028045;28;20049;-83
2023/10/16 00:49:19;;;;;;;12.70;5.97;;;7.70;99.90;;;8.10;69.91;101310.69;5043843;28;20057;-83
2023/10/16 00:51:46;;;;;;;9.70;6.07;;;7.70;99.90;;;8.07;69.92;101307.56;5047782;28;20296;-83
2023/10/16 00:54:26;;;;;;;10.75;5.93;;;7.70;99.90;;;8.05;69.82;101310.38;5027716;28;20509;-82
2023/10/16 00:56:57;;;;;;;10.68;6.18;;;7.70;99.90;;;8.03;69.76;101306.25;5011406;28;20050;-83
2023/10/16 00:59:25;;;;;;;8.27;5.10;;;7.60;99.90;;;7.99;69.87;101311.88;5027608;28;20113;-83
2023/10/16 01:02:06;;;;;;;11.48;5.70;;;7.60;99.90;;;7.96;69.81;101314.91;5013207;28;20041;-83
2023/10/16 01:04:35;;;;;;;11.15;5.65;;;7.80;99.90;;;7.97;69.93;101305.09;5026403;28;20121;-83
2023/10/16 01:07:05;;;;;;;10.77;5.80;;;7.60;99.90;;;7.95;69.89;101312.41;5042938;28;20042;-83
2023/10/16 01:09:35;;;;;;;10.82;6.25;;;7.60;99.90;;;7.93;69.87;101304.63;4978117;28;20045;-83
2023/10/16 01:12:07;;;;;;;9.15;5.07;;;7.60;99.90;;;7.94;70.12;101302.78;5022158;28;20053;-83
2023/10/16 01:14:37;;;;;;;12.07;5.65;;;7.60;99.90;;;7.93;69.54;101301.13;5010118;28;20382;-83
2023/10/16 01:17:08;;;;;;;9.00;5.15;;;7.60;99.90;;;7.94;69.63;101308.94;5026827;28;20171;-83
2023/10/16 01:19:37;;;;;;;10.60;5.47;;;7.50;99.90;;;7.94;69.86;101303.63;5027471;28;20049;-83
2023/10/16 01:22:05;;;;;;;10.07;5.50;;;7.50;99.90;;;7.91;70.06;101306.63;5043336;28;20033;-83
2023/10/16 01:24:34;;;;;;;10.27;5.97;;;7.50;99.90;;;7.93;70.14;101295.84;5042567;28;20049;-83
2023/10/16 01:27:06;;;;;;;10.48;5.90;;;7.50;99.90;;;7.95;70.20;101305.28;5025506;28;20050;-83
2023/10/16 01:29:35;;;;;;;10.13;6.22;;;7.50;99.90;;;7.94;70.40;101302.78;5042507;28;20040;-83
2023/10/16 01:32:04;;;;;;;13.35;6.25;;;7.50;99.90;;;7.94;70.27;101298.31;5039238;28;20042;-83
2023/10/16 01:34:32;;;;;;;11.95;6.28;;;7.60;99.90;;;7.94;69.90;101292.16;5023536;28;20505;-83
2023/10/16 01:37:08;;;;;;;13.23;6.43;;;7.50;99.90;;;7.91;69.96;101292.53;5025439;28;20041;-83
2023/10/16 01:39:49;;;;;;;12.15;6.07;;;7.50;99.90;;;7.89;70.37;101302.47;5022156;28;20045;-83
2023/10/16 01:42:18;;;;;;;10.63;6.68;;;7.50;99.90;;;7.89;70.31;101295.34;5021425;28;20497;-83
2023/10/16 01:44:46;;;;;;;12.48;6.18;;;7.50;99.90;;;7.89;69.93;101298.00;5042199;28;20398;-83
2023/10/16 01:47:15;;;;;;;11.82;7.15;;;7.50;99.90;;;7.90;70.19;101293.50;5043234;28;20076;-82
2023/10/16 01:49:43;;;;;;;10.88;6.57;;;7.50;99.90;;;7.89;70.16;101291.84;5008640;28;20053;-83
2023/10/16 01:52:13;;;;;;;11.80;6.43;;;7.50;99.90;;;7.88;70.27;101284.91;5038438;28;20042;-83
2023/10/16 01:54:46;;;;;;;9.98;6.20;;;7.50;99.90;;;7.85;70.10;101290.53;5038654;28;20087;-83
2023/10/16 01:57:13;;;;;;;12.95;6.90;;;7.50;99.90;;;7.85;70.12;101282.56;5025589;28;20046;-82
2023/10/16 01:59:44;;;;;;;10.38;6.13;;;7.50;99.90;;;7.83;69.97;101284.59;5041872;28;20044;-83
2023/10/16 02:02:12;;;;;;;10.68;6.03;;;7.50;99.90;;;7.83;70.03;101285.41;5022286;28;20084;-82
2023/10/16 02:04:40;;;;;;;9.93;5.93;;;7.40;99.90;;;7.81;69.70;101282.13;5015876;28;20064;-83
2023/10/16 02:07:09;;;;;;;9.52;5.78;;;7.40;99.90;;;7.80;69.90;101276.97;5042739;28;20140;-82
2023/10/16 02:09:40;;;;;;;11.52;6.03;;;7.40;99.90;;;7.78;69.90;101277.16;5043362;28;20468;-83
2023/10/16 02:12:14;;;;;;;11.75;5.85;;;7.40;99.90;;;7.81;70.12;101281.25;5037433;28;20603;-83
2023/10/16 02:14:42;;;;;;;10.50;5.68;;;7.50;99.90;;;7.80;69.99;101272.47;5038551;28;20046;-83
2023/10/16 02:17:14;;;;;;;11.15;6.28;;;7.40;99.90;;;7.81;69.78;101273.28;5019914;28;20075;-83
2023/10/16 02:19:44;;;;;;;11.45;6.60;;;7.40;99.90;;;7.78;69.88;101266.53;5021582;28;20100;-82
2023/10/16 02:22:12;;;;;;;10.18;6.00;;;7.40;99.90;;;7.79;70.15;101270.81;5043235;28;20479;-83
2023/10/16 02:24:40;;;;;;;10.80;6.95;;;7.40;99.90;;;7.80;70.24;101266.34;5025571;28;20045;-83
2023/10/16 02:27:12;;;;;;;12.43;6.57;;;7.40;99.90;;;7.78;70.24;101273.66;5025431;28;20069;-83
2023/10/16 02:29:45;;;;;;;11.82;6.38;;;7.40;99.90;;;7.77;70.13;101266.72;5024841;28;20049;-83
2023/10/16 02:32:13;;;;;;;10.60;6.68;;;7.40;99.90;;;7.74;70.31;101260.72;5029462;28;20037;-83
2023/10/16 02:34:41;;;;;;;13.30;6.60;;;7.30;99.90;;;7.73;70.27;101260.91;5043223;28;20041;-83
2023/10/16 02:37:10;;;;;;;11.10;6.55;;;7.40;99.90;;;7.74;70.42;101260.72;4993263;28;20053;-83
2023/10/16 02:39:41;;;;;;;10.45;7.47;;;7.40;99.90;;;7.74;70.10;101257.25;5038397;28;20068;-83
2023/10/16 02:42:11;;;;;;;11.98;6.82;;;7.40;99.90;;;7.72;70.34;101257.44;4989611;28;20042;-83
2023/10/16 02:44:45;;;;;;;11.43;6.47;;;7.40;99.90;;;7.75;70.58;101251.75;5019636;28;20516;-83
2023/10/16 02:47:19;;;;;;;12.05;6.55;;;7.40;99.90;;;7.78;70.31;101263.03;5041458;28;20065;-83
2023/10/16 02:49:48;;;;;;;11.52;7.55;;;7.40;99.90;;;7.79;70.69;101262.03;5048135;28;20051;-83
2023/10/16 02:52:17;;;;;;;13.30;7.57;;;7.50;99.90;;;7.80;70.67;101264.50;5042240;28;20542;-83
2023/10/16 02:54:47;;;;;;;12.20;7.38;;;7.50;99.90;;;7.80;70.81;101266.34;5025227;28;20060;-83
2023/10/16 02:57:16;;;;;;;12.50;7.78;;;7.50;99.90;;;7.80;70.78;101263.69;5025598;28;20056;-83
2023/10/16 02:59:45;;;;;;;15.88;7.60;;;7.50;99.90;;;7.80;70.54;101266.34;5043643;28;20056;-83
2023/10/16 03:02:17;;;;;;;13.13;8.25;;;7.50;99.90;;;7.78;70.71;101260.38;5026236;28;20049;-83
2023/10/16 03:04:48;;;;;;;10.68;7.00;;;7.40;99.90;;;7.75;70.69;101267.69;5043693;28;20045;-83
2023/10/16 03:07:16;;;;;;;11.88;7.70;;;7.40;99.90;;;7.74;70.58;101271.34;5043940;28;20095;-83
2023/10/16 03:09:45;;;;;;;11.07;7.55;;;7.40;99.90;;;7.72;70.71;101278.66;5008481;28;20049;-83
2023/10/16 03:12:15;;;;;;;12.52;7.45;;;7.40;99.90;;;7.72;70.71;101283.97;5036164;28;20421;-83
2023/10/16 03:14:47;;;;;;;13.18;7.25;;;7.40;99.90;;;7.70;70.53;101282.47;5013664;28;20052;-83
2023/10/16 03:17:22;;;;;;;11.80;7.50;;;7.30;99.90;;;7.69;70.47;101278.19;5040677;28;20049;-83
2023/10/16 03:19:54;;;;;;;11.70;6.72;;;7.30;99.90;;;7.65;70.42;101277.69;5025758;28;20508;-83
2023/10/16 03:22:22;;;;;;;11.38;7.97;;;7.30;99.90;;;7.64;70.55;101281.34;5041445;28;20061;-83
2023/10/16 03:24:51;;;;;;;12.95;7.60;;;7.30;99.90;;;7.65;70.55;101279.50;5024744;28;20045;-83
2023/10/16 03:27:28;;;;;;;17.40;8.50;;;7.30;99.90;;;7.66;70.52;101279.38;5042543;28;20109;-83
2023/10/16 03:29:57;;;;;;;11.63;7.75;;;7.30;99.90;;;7.66;70.41;101276.72;5026043;28;20042;-83
2023/10/16 03:32:24;;;;;;;13.85;8.27;;;7.30;99.90;;;7.66;70.38;101279.38;5041624;28;20038;-83
2023/10/16 03:34:53;;;;;;;13.13;8.45;;;7.30;99.90;;;7.65;70.55;101276.84;5042986;28;20046;-83
2023/10/16 03:37:24;;;;;;;12.90;8.35;;;7.30;99.90;;;7.65;70.47;101271.56;5022715;28;20099;-83
2023/10/16 03:40:02;;;;;;;;;;;7.20;99.90;;;7.62;70.66;101272.75;5017484;28;20042;-83
2023/10/16 03:42:31;;;;;;;13.48;7.78;;;7.20;99.90;;;7.60;70.56;101274.72;5021570;28;19921;-83
2023/10/16 03:45:01;;;;;;;13.73;8.38;;;7.20;99.90;;;7.58;70.53;101279.38;5043446;28;20475;-83
2023/10/16 03:47:32;;;;;;;12.43;8.00;;;7.20;99.90;;;7.60;70.66;101274.72;5026508;28;20073;-83
2023/10/16 03:50:00;;;;;;;11.45;8.07;;;7.20;99.90;;;7.59;70.99;101273.06;5009953;28;20053;-83
2023/10/16 03:52:28;;;;;;;12.52;8.02;;;7.20;99.90;;;7.62;71.01;101270.09;5042279;28;20049;-83
2023/10/16 03:54:56;;;;;;;13.00;8.80;;;7.30;99.90;;;7.63;70.76;101265.59;5038905;28;20045;-83
2023/10/16 03:57:24;;;;;;;16.88;8.57;;;7.20;99.90;;;7.59;70.88;101264.28;5025013;28;20458;-83
2023/10/16 03:59:53;;;;;;;12.77;8.18;;;7.20;99.90;;;7.57;70.75;101266.28;5043927;28;20053;-82
2023/10/16 04:02:22;;;;;;;12.93;8.27;;;7.20;99.90;;;7.59;70.70;101261.63;5028391;28;20067;-83
2023/10/16 04:04:53;;;;;;;16.58;8.70;;;7.20;99.90;;;7.61;70.69;101271.09;5029937;28;20049;-83
2023/10/16 04:07:22;;;;;;;;;;;7.20;99.90;;;7.60;70.91;101269.41;5028538;28;20105;-83
2023/10/16 04:09:50;;;;;;;12.95;8.40;;;7.20;99.90;;;7.58;71.04;101265.28;5047165;28;19975;-83
2023/10/16 04:12:21;;;;;;;14.98;8.85;;;7.20;99.90;;;7.59;70.92;101269.59;5028531;28;20045;-83
2023/10/16 04:14:55;;;;;;;13.73;8.70;;;7.20;99.90;;;7.57;71.17;101269.78;5030167;28;20056;-83
2023/10/16 04:17:25;;;;;;;16.85;8.60;;;7.20;99.90;;;7.57;71.15;101269.78;5046866;28;20049;-83
2023/10/16 04:19:59;;;;;;;15.68;8.85;;;7.20;99.90;;;7.58;70.82;101260.81;5029872;28;20053;-83
2023/10/16 04:22:27;;;;;;;14.90;8.50;;;7.20;99.90;;;7.57;70.55;101264.47;5028400;28;20042;-83
2023/10/16 04:24:55;;;;;;;17.70;9.65;;;7.20;99.90;;;7.55;70.78;101266.44;5009550;28;20051;-83
2023/10/16 04:27:29;;;;;;;13.02;8.45;;;7.10;99.90;;;7.52;70.77;101260.66;5046057;28;20049;-83
2023/10/16 04:32:56;;;;;;;15.55;8.93;;;7.20;99.90;;;7.48;70.41;101252.22;5045604;28;20068;-83
2023/10/16 04:35:52;;;;;;;14.85;9.05;;;7.10;99.90;;;7.47;70.47;101258.53;5047710;28;20037;-82
2023/10/16 04:38:31;;;;;;;13.52;8.60;;;7.10;99.90;;;7.44;70.60;101258.88;5029275;28;20542;-83
2023/10/16 04:44:21;;;;;;;14.13;9.32;;;7.10;99.90;;;7.43;70.94;101257.22;5050143;28;20143;-83
2023/10/16 04:49:28;;;;;;;15.82;9.02;;;7.10;99.90;;;7.47;71.18;101238.13;5022504;28;20065;-84
2023/10/16 04:52:06;;;;;;;13.90;9.60;;;7.10;99.90;;;7.47;70.86;101253.22;5046431;28;20038;-83
2023/10/16 04:54:58;;;;;;;19.38;9.80;;;7.10;99.90;;;7.46;70.93;101241.75;5010993;28;20049;-87
2023/10/16 05:00:54;;;;;;;21.63;11.48;;;7.10;99.90;;;7.47;71.20;101226.69;5040900;28;20041;-85
2023/10/16 05:03:23;;;;;;;16.67;10.40;;;7.10;99.90;;;7.46;70.94;101219.69;5031371;28;20516;-86
2023/10/16 05:06:14;;;;;;;19.60;10.77;;;7.10;99.90;;;7.47;71.35;101216.06;4983973;28;20050;-87
2023/10/16 05:15:20;;;;;;;19.02;11.43;;;7.10;99.90;;;7.48;71.58;101215.06;5034333;28;20120;-86
2023/10/16 05:17:21;;;;;;;20.15;10.82;;;7.10;99.90;;;7.46;71.37;101214.38;5020132;28;20046;-88
2023/10/16 05:19:54;;;;;;;18.80;11.48;;;7.10;99.90;;;7.44;71.42;101225.19;5021270;28;20084;-88
2023/10/16 06:15:07;;;;;;;21.50;12.93;;;7.00;99.90;;;7.34;71.62;101234.34;5026952;28;20049;-83
2023/10/16 06:17:37;;;;;;;24.85;12.93;;;7.00;99.90;;;7.35;71.65;101241.31;5011180;28;20050;-83
2023/10/16 06:20:11;;;;;;;19.38;12.50;;;7.00;99.90;;;7.36;71.82;101233.16;5018067;28;20096;-83
2023/10/16 06:22:39;;;;;;;22.95;13.02;;;7.00;99.90;;;7.36;72.13;101241.13;5040336;28;20045;-83
2023/10/16 06:25:10;;;;;;;22.23;12.80;;;7.10;99.90;;;7.40;72.03;101247.75;5021848;28;20105;-83
2023/10/16 06:27:41;;;;;;;21.80;13.05;;;7.10;99.90;;;7.42;72.39;101234.34;5007118;28;20053;-83
2023/10/16 06:30:18;;;;;;;;;;;7.10;99.90;;;7.45;71.95;101244.59;5020792;28;20072;-85
2023/10/16 06:32:49;;;;;;;24.58;13.02;;;7.20;99.90;;;7.47;72.33;101247.91;5011670;28;19921;-83
2023/10/16 06:35:18;;;;;;;22.92;13.48;;;7.20;99.90;;;7.51;72.58;101248.38;5041356;28;20045;-83
2023/10/16 06:37:51;;;;;;;25.23;14.43;;;7.20;99.90;;;7.52;72.60;101237.59;5023646;28;20048;-83
2023/10/16 06:40:24;;;;;;;25.10;14.52;;;7.20;99.90;;;7.54;72.75;101243.56;5023417;28;20041;-83
2023/10/16 06:43:09;;;;;;;22.38;13.50;;;7.20;99.90;;;7.55;72.78;101239.91;5041226;28;20048;-83
2023/10/16 06:45:54;;;;;;;27.13;15.55;;;7.30;99.90;;;7.57;73.16;101240.56;5022316;28;20049;-83
2023/10/16 06:48:21;;;;;;;25.02;14.38;;;7.30;99.90;;;7.62;73.16;101240.88;5041736;28;20045;-83
2023/10/16 06:50:54;;;;;;;25.38;15.38;;;7.40;99.90;;;7.63;73.25;101241.72;5053788;28;20037;-83
2023/10/16 06:53:23;;;;;;;26.33;14.70;;;7.30;99.90;;;7.64;73.29;101240.69;5022803;28;20045;-84
2023/10/16 06:55:52;;;;;;;26.45;15.35;;;7.40;99.90;;;7.66;73.54;101247.50;5041488;28;20064;-84
2023/10/16 06:58:21;;;;;;;26.55;15.75;;;7.40;99.90;;;7.69;74.08;101241.00;5040456;28;20075;-83
2023/10/16 07:00:50;;;;;;;26.95;16.17;;;7.40;99.90;;;7.73;73.81;101243.16;5007342;28;20140;-83
2023/10/16 07:03:17;;;;;;;28.80;16.63;;;7.50;99.90;;;7.74;73.90;101244.78;5022141;28;20037;-83
2023/10/16 07:05:45;;;;;;;25.85;15.65;;;7.50;99.90;;;7.74;73.85;101242.13;5020461;28;20128;-85
2023/10/16 07:08:16;;;;;;;25.00;15.30;;;7.60;99.90;;;7.78;74.14;101247.94;5019069;28;20069;-83
2023/10/16 07:10:52;;;;;;;23.30;15.55;;;7.60;99.90;;;7.81;74.15;101247.59;5018982;28;20069;-83
2023/10/16 07:13:30;;;;;;;25.50;15.68;;;7.60;99.90;;;7.84;74.32;101249.06;5024867;28;20115;-84
2023/10/16 07:16:00;;;;;;;24.08;15.70;;;7.60;99.90;;;7.87;74.38;101246.06;5038147;28;20060;-83
2023/10/16 07:18:31;;;;;;;24.55;15.77;;;7.70;99.90;;;7.91;74.50;101248.22;5042949;28;20076;-83
2023/10/16 07:21:08;;;;;;;26.75;16.35;;;7.70;99.90;;;7.95;74.77;101244.22;5020108;28;20057;-85
2023/10/16 07:23:38;;;;;;;26.80;16.45;;;7.80;99.90;;;8.02;75.13;101240.84;5010903;28;20042;-83
2023/10/16 07:26:08;;;;;;;30.15;16.15;;;7.80;99.90;;;8.04;75.41;101239.66;5016467;28;20041;-83
2023/10/16 07:28:39;;;;;;;27.52;15.77;;;7.80;99.90;;;8.05;75.35;101243.94;5022927;28;20068;-83
2023/10/16 07:31:10;;;;;;;31.55;17.10;;;7.90;99.90;;;8.07;75.73;101239.31;5035507;28;20046;-83
2023/10/16 07:33:38;;;;;;;27.00;16.27;;;7.90;99.90;;;8.10;75.80;101246.94;5021476;28;20071;-83
2023/10/16 07:36:11;;;;;;;26.40;16.60;;;7.90;99.90;;;8.14;75.80;101237.59;5044911;28;20064;-83
2023/10/16 07:38:39;;;;;;;31.40;17.67;;;7.90;99.90;;;8.18;76.22;101238.91;4994061;28;20042;-83
2023/10/16 07:41:09;;;;;;;36.00;17.45;;;8.00;99.90;;;8.22;76.24;101248.16;5047164;28;20087;-83
2023/10/16 07:43:39;;;;;;;29.63;17.48;;;8.10;99.90;;;8.26;76.14;101235.38;4989748;28;20456;-85
2023/10/16 07:46:19;;;;;;;26.02;16.45;;;8.10;99.90;;;8.28;76.63;101236.00;5025226;28;20471;-84
2023/10/16 07:48:50;;;;;;;32.10;17.70;;;8.10;99.90;;;8.29;76.47;101237.66;5038802;28;20417;-85
2023/10/16 07:51:21;;;;;;;33.13;18.17;;;8.10;99.90;;;8.35;76.89;101239.63;5040396;28;20054;-85
2023/10/16 07:53:50;;;;;;;31.20;18.93;;;8.20;99.90;;;8.41;76.63;101241.59;5043528;28;20045;-84
2023/10/16 07:56:25;;;;;;;28.85;17.58;;;8.30;99.90;;;8.45;77.11;101247.38;5024703;28;20300;-85
2023/10/16 07:58:56;;;;;;;33.15;18.50;;;8.40;99.90;;;8.46;77.39;101252.53;5043594;28;20056;-84
2023/10/16 08:01:41;;;;;;;31.45;18.15;;;8.30;99.90;;;8.46;77.64;101249.84;5024894;28;20068;-84
2023/10/16 08:07:08;;;;;;;27.35;17.40;;;8.40;99.90;;;8.60;78.21;101250.91;5014424;28;20076;-85
2023/10/16 08:12:36;;;;;;;32.50;18.55;;;8.50;99.90;;;8.62;77.81;101253.38;4980197;28;20053;-84
2023/10/16 08:15:14;;;;;;;37.53;18.08;;;8.50;99.90;;;8.62;77.91;101259.53;5012119;28;20041;-84
2023/10/16 08:17:44;;;;;;;29.98;17.50;;;8.50;99.90;;;8.69;78.31;101254.34;5026200;28;20049;-84
2023/10/16 08:20:17;;;;;;;32.42;17.00;;;8.60;99.90;;;8.74;78.33;101258.13;5042783;28;20050;-84
2023/10/16 08:22:47;;;;;;;30.27;18.27;;;8.60;99.90;;;8.75;77.93;101264.25;5025580;28;20108;-84
2023/10/16 08:27:57;;;;;;;32.97;16.80;;;8.70;99.90;;;8.83;77.95;101250.03;5023696;28;20073;-84
2023/10/16 08:30:49;;;;;;;32.65;17.00;;;8.70;99.90;;;8.86;77.69;101263.00;5024344;28;20068;-84
2023/10/16 08:33:28;;;;;;;27.20;16.40;;;8.70;99.90;;;8.87;77.82;101262.81;5030191;28;20044;-84
2023/10/16 08:35:58;;;;;;;31.63;16.88;;;8.80;99.90;;;8.90;77.92;101262.44;5020127;28;20095;-85
2023/10/16 08:38:26;;;;;;;30.98;16.48;;;8.80;99.90;;;8.94;78.23;101263.75;5017241;28;20053;-86
2023/10/16 08:41:06;;;;;;;27.25;16.42;;;8.80;99.90;;;8.97;78.11;101268.69;4984858;28;20052;-86
2023/10/16 08:43:53;;;;;;;28.08;16.10;;;8.90;99.90;;;8.93;78.05;101266.56;5036279;28;20049;-86
2023/10/16 08:46:30;;;;;;;29.35;16.60;;;8.90;99.90;;;8.98;77.86;101264.22;5005916;28;20057;-86
2023/10/16 08:49:00;;;;;;;29.83;16.92;;;8.90;99.90;;;9.02;78.18;101268.16;5035051;28;20558;-86
2023/10/16 08:51:29;;;;;;;30.83;16.70;;;8.90;99.90;;;9.07;78.41;101273.75;5035668;28;20420;-86
2023/10/16 08:54:02;;;;;;;28.63;15.98;;;9.00;99.90;;;9.10;78.10;101278.72;5019065;28;20087;-86
2023/10/16 08:56:30;;;;;;;28.98;16.40;;;9.00;99.90;;;9.18;78.46;101264.53;5018601;28;20501;-86
2023/10/16 08:58:57;;;;;;;31.58;16.70;;;9.10;99.90;;;9.18;78.34;101269.84;5048375;28;20099;-86
2023/10/16 09:01:32;;;;;;;30.33;16.10;;;9.10;99.90;;;9.22;78.53;101260.47;5032372;28;20049;-86
2023/10/16 09:04:05;;;;;;;30.08;15.63;;;9.20;99.90;;;9.25;78.81;101260.94;5029945;28;20107;-86
2023/10/16 09:06:37;;;;;;;29.33;16.02;;;9.20;99.90;;;9.29;79.21;101267.53;5029075;28;20073;-86
2023/10/16 09:09:13;;;;;;;35.35;16.88;;;9.20;99.90;;;9.32;78.95;101270.84;5018138;28;20053;-88
2023/10/16 09:11:45;;;;;;;26.73;15.25;;;9.30;99.90;;;9.29;79.51;101266.72;5013284;28;20421;-85
2023/10/16 09:14:17;;;;;;;27.83;15.65;;;9.30;99.90;;;9.32;80.20;101260.19;5021599;28;20109;-86
2023/10/16 09:16:55;;;;;;;27.42;15.80;;;9.30;99.90;;;9.35;80.04;101262.50;5028775;28;20108;-85
2023/10/16 09:19:33;;;;;;;29.98;17.25;;;9.40;99.90;;;9.43;80.72;101257.09;5037130;28;20050;-85
2023/10/16 09:22:08;;;;;;;37.47;18.38;;;9.50;99.90;;;9.42;80.81;101255.41;5041484;28;20045;-85
2023/10/16 09:24:36;;;;;;;36.00;19.42;;;9.50;99.90;;;9.48;80.82;101258.19;5023300;28;20425;-85
2023/10/16 09:27:13;;;;;;;40.25;19.52;;;9.60;99.90;;;9.48;80.75;101255.53;5043121;28;20037;-85
2023/10/16 09:29:53;;;;;;;35.38;18.83;;;9.60;99.90;;;9.43;80.39;101260.56;5022986;28;20037;-85
2023/10/16 09:32:27;;;;;;;30.00;17.48;;;9.60;99.90;;;9.46;80.45;101265.50;5018200;28;20050;-85
2023/10/16 09:34:58;;;;;;;33.63;17.88;;;9.60;99.90;;;9.51;80.38;101270.28;5024038;28;20120;-85
2023/10/16 09:37:29;;;;;;;32.47;17.65;;;9.60;99.90;;;9.55;80.78;101266.25;5040305;28;20041;-85
2023/10/16 09:40:01;;;;;;;34.28;17.92;;;9.70;99.90;;;9.62;80.80;101258.38;5033732;28;20136;-85
2023/10/16 09:42:29;;;;;;;34.47;19.27;;;9.70;99.90;;;9.65;80.89;101261.47;5035871;28;20045;-85
2023/10/16 09:45:07;;;;;;;32.35;18.13;;;9.70;99.90;;;9.67;81.25;101262.13;5036643;28;20112;-85
2023/10/16 09:47:48;;;;;;;32.72;18.00;;;9.80;99.90;;;9.76;81.56;101263.66;5036312;28;20068;-85
2023/10/16 09:50:18;;;;;;;33.50;18.58;;;9.80;99.90;;;9.80;82.06;101256.94;5001094;28;20045;-85
2023/10/16 09:52:47;;;;;;;34.47;18.20;;;9.90;99.90;;;9.84;81.77;101267.22;5020095;28;20041;-85
2023/10/16 09:55:15;;;;;;;38.28;18.60;;;9.90;99.90;;;9.87;81.87;101259.69;5035365;28;20046;-85
2023/10/16 09:57:50;;;;;;;37.15;18.42;;;10.00;99.90;;;9.96;81.81;101260.41;5035532;28;20046;-85
2023/10/16 10:00:28;;;;;;;34.53;17.83;;;10.00;99.90;;;10.04;81.03;101252.28;5018968;28;20041;-84
2023/10/16 10:03:05;;;;;;;35.63;18.52;;;10.10;99.90;;;10.03;81.17;101251.47;4992172;28;20578;-83
2023/10/16 10:05:47;;;;;;;35.00;17.75;;;10.20;99.90;;;9.99;81.91;101246.69;5007236;28;20113;-83
2023/10/16 10:08:27;;;;;;;34.85;17.50;;;10.20;99.90;;;9.99;82.02;101242.19;5039796;28;20136;-85
2023/10/16 10:11:23;;;;;;;33.35;18.63;;;10.20;99.90;;;10.04;82.64;101241.63;5023156;28;20448;-85
2023/10/16 10:14:09;;;;;;;31.83;17.33;;;10.20;99.90;;;9.99;81.51;101249.38;5040374;28;20479;-85
2023/10/16 10:16:39;;;;;;;31.92;17.10;;;10.20;99.90;;;9.99;81.24;101242.19;5003613;28;20045;-86
2023/10/16 10:19:24;;;;;;;35.80;17.10;;;10.10;99.90;;;10.00;81.05;101246.53;5003592;28;20049;-85
2023/10/16 10:21:54;;;;;;;34.08;16.80;;;10.10;99.90;;;10.05;81.40;101246.78;5015781;28;20046;-85
2023/10/16 10:24:24;;;;;;;36.83;17.58;;;10.20;99.90;;;10.14;82.19;101244.00;5017116;28;20559;-86
2023/10/16 10:26:52;;;;;;;39.83;19.53;;;10.30;99.90;;;10.18;82.11;101239.94;5019011;28;20061;-84
2023/10/16 10:29:20;;;;;;;38.70;19.08;;;10.40;99.90;;;10.17;81.73;101239.13;5024173;28;20041;-84
2023/10/16 10:31:50;;;;;;;35.72;18.58;;;10.40;99.90;;;10.22;81.41;101234.03;5004512;28;20050;-84
2023/10/16 10:34:27;;;;;;;37.22;17.65;;;10.40;99.90;;;10.27;81.73;101242.31;5014665;28;20117;-84
2023/10/16 10:36:57;;;;;;;32.85;17.63;;;10.40;99.90;;;10.32;81.67;101237.25;5041806;28;20084;-84
2023/10/16 10:39:43;;;;;;;32.00;17.87;;;10.50;99.90;;;10.30;80.43;101239.28;5040910;28;20053;-84
2023/10/16 10:42:23;;;;;;;33.63;18.35;;;10.50;99.90;;;10.34;80.56;101238.88;5012253;28;20511;-84
2023/10/16 10:47:45;;;;;;;32.28;15.90;;;10.50;99.90;;;10.42;79.95;101226.25;5003516;28;20056;-83
2023/10/16 10:50:14;;;;;;;30.55;16.50;;;10.60;99.90;;;10.46;79.47;101234.72;4989299;28;20132;-83
2023/10/16 10:52:41;;;;;;;23.27;10.98;;;10.70;99.90;;;10.48;76.66;101227.31;5004145;28;20042;-83
2023/10/16 10:55:18;;;;;;;24.33;10.48;;;10.70;99.90;;;10.51;76.77;101213.63;5006077;28;20038;-83
2023/10/16 10:57:48;;;;;;;20.65;8.82;;;10.70;99.90;;;10.53;75.76;101216.91;5006071;28;20057;-83
2023/10/16 11:00:43;;;;;;;15.20;7.00;;;10.70;99.90;;;10.56;75.26;101211.19;5023579;28;20054;-83
2023/10/16 11:03:22;;;;;;;15.82;6.05;;;10.70;99.90;;;10.57;73.75;101207.50;5003394;28;20049;-83
2023/10/16 11:05:51;;;;;;;13.20;5.28;;;10.70;99.90;;;10.58;73.74;101212.63;5045464;28;20048;-83
2023/10/16 11:08:25;;;;;;;12.57;6.07;;;10.70;99.90;;;10.61;73.97;101210.63;5026359;28;20045;-83
2023/10/16 11:15:05;;;;;;;17.13;7.03;;;10.70;99.90;;;10.62;73.54;101202.41;4949932;28;20162;-84
2023/10/16 11:17:33;;;;;;;;;;;10.70;99.90;;;10.65;73.83;101199.38;4981681;28;20178;-83
2023/10/16 11:20:27;;;;;;;16.65;7.82;;;10.80;99.90;;;10.68;74.12;101187.47;4982208;28;19965;-83
2023/10/16 11:22:58;;;;;;;16.40;6.57;;;10.80;99.90;;;10.70;74.55;101191.63;4935393;28;20046;-83
2023/10/16 11:25:29;;;;;;;13.00;5.70;;;10.80;99.90;;;10.71;74.18;101189.78;4985623;28;20431;-83
2023/10/16 11:28:06;;;;;;;13.60;6.22;;;10.80;99.90;;;10.68;73.59;101188.28;4985235;28;20141;-83
2023/10/16 11:30:38;;;;;;;15.60;5.95;;;10.80;99.90;;;10.64;72.15;101181.72;4987388;28;20054;-83
2023/10/16 11:33:09;;;;;;;15.63;5.70;;;10.80;99.90;;;10.67;73.25;101185.84;4985444;28;20046;-83
2023/10/16 11:35:36;;;;;;;12.53;5.50;;;10.80;99.90;;;10.69;74.04;101184.63;5001655;28;20051;-83
2023/10/16 11:38:13;;;;;;;20.08;5.95;;;10.80;99.90;;;10.71;74.33;101181.75;5001117;28;20046;-83
2023/10/16 11:40:42;;;;;;;11.40;5.00;;;10.80;99.90;;;10.72;75.12;101168.22;4985660;28;20042;-83
2023/10/16 11:43:11;;;;;;;14.77;5.22;;;10.80;99.90;;;10.74;75.47;101168.88;4983654;28;20046;-83
2023/10/16 11:45:40;;;;;;;9.85;4.63;;;10.80;99.90;;;10.73;74.09;101172.53;4985673;28;20050;-83
2023/10/16 11:48:35;;;;;;;11.18;5.13;;;10.70;99.90;;;10.71;73.14;101171.91;4985367;28;20485;-83
2023/10/16 11:51:10;;;;;;;15.07;6.15;;;10.70;99.90;;;10.69;73.63;101171.28;4964459;28;20061;-84
2023/10/16 11:53:39;;;;;;;14.00;6.03;;;10.70;99.90;;;10.72;74.73;101173.56;5024344;28;20034;-83
2023/10/16 11:56:09;;;;;;;11.65;6.07;;;10.80;99.90;;;10.75;74.16;101167.84;4990060;28;20050;-83
2023/10/16 11:58:37;;;;;;;14.55;5.95;;;10.80;99.90;;;10.78;74.23;101163.94;4990195;28;20108;-83
2023/10/16 12:01:09;;;;;;;13.02;6.47;;;10.80;99.90;;;10.83;74.63;101159.69;5027127;28;20045;-83
2023/10/16 12:03:38;;;;;;;12.55;6.72;;;10.90;99.90;;;10.87;74.20;101169.97;4990921;28;20061;-83